sensor_id;sensor_type;location;lat;lon;timestamp;P1;durP1;ratioP1;P2;durP2;ratioP2
20348;SDS011;10332;50.208;18.988;2022-09-29T00:01:08;14.60;;;9.13;;
20348;SDS011;10332;50.208;18.988;2022-09-29T00:03:36;14.13;;;8.43;;
20348;SDS011;10332;50.208;18.988;2022-09-29T00:06:08;11.88;;;6.78;;
20348;SDS011;10332;50.208;18.988;2022-09-29T00:08:40;10.95;;;6.88;;
20348;SDS011;10332;50.208;18.988;2022-09-29T00:11:09;12.18;;;7.47;;
20348;SDS011;10332;50.208;18.988;2022-09-29T00:13:41;9.07;;;6.70;;
20348;SDS011;10332;50.208;18.988;2022-09-29T00:16:09;12.15;;;7.30;;
20348;SDS011;10332;50.208;18.988;2022-09-29T00:18:37;10.70;;;6.32;;
20348;SDS011;10332;50.208;18.988;2022-09-29T00:21:09;9.60;;;6.00;;
20348;SDS011;10332;50.208;18.988;2022-09-29T00:23:40;10.02;;;5.55;;
20348;SDS011;10332;50.208;18.988;2022-09-29T00:26:10;8.32;;;6.10;;
20348;SDS011;10332;50.208;18.988;2022-09-29T00:28:40;10.52;;;7.00;;
20348;SDS011;10332;50.208;18.988;2022-09-29T00:31:13;9.73;;;6.65;;
20348;SDS011;10332;50.208;18.988;2022-09-29T00:33:41;7.70;;;5.57;;
20348;SDS011;10332;50.208;18.988;2022-09-29T00:36:09;8.70;;;5.53;;
20348;SDS011;10332;50.208;18.988;2022-09-29T00:38:40;8.30;;;5.68;;
20348;SDS011;10332;50.208;18.988;2022-09-29T00:41:14;8.20;;;6.25;;
20348;SDS011;10332;50.208;18.988;2022-09-29T00:46:22;10.07;;;6.30;;
20348;SDS011;10332;50.208;18.988;2022-09-29T00:49:18;12.32;;;7.25;;
20348;SDS011;10332;50.208;18.988;2022-09-29T00:54:49;8.40;;;5.78;;
20348;SDS011;10332;50.208;18.988;2022-09-29T00:57:36;10.00;;;6.65;;
20348;SDS011;10332;50.208;18.988;2022-09-29T01:00:20;7.45;;;5.82;;
20348;SDS011;10332;50.208;18.988;2022-09-29T01:02:52;10.05;;;6.32;;
20348;SDS011;10332;50.208;18.988;2022-09-29T01:05:46;10.90;;;8.15;;
20348;SDS011;10332;50.208;18.988;2022-09-29T01:08:38;10.27;;;7.07;;
20348;SDS011;10332;50.208;18.988;2022-09-29T01:11:09;10.48;;;6.93;;
20348;SDS011;10332;50.208;18.988;2022-09-29T01:13:38;14.05;;;8.82;;
20348;SDS011;10332;50.208;18.988;2022-09-29T01:16:07;11.75;;;8.07;;
20348;SDS011;10332;50.208;18.988;2022-09-29T01:18:35;11.88;;;7.93;;
20348;SDS011;10332;50.208;18.988;2022-09-29T01:21:09;12.52;;;8.90;;
20348;SDS011;10332;50.208;18.988;2022-09-29T01:35:34;13.35;;;8.55;;
20348;SDS011;10332;50.208;18.988;2022-09-29T01:41:17;12.32;;;8.77;;
20348;SDS011;10332;50.208;18.988;2022-09-29T01:46:40;14.13;;;9.95;;
20348;SDS011;10332;50.208;18.988;2022-09-29T01:49:40;12.48;;;8.57;;
20348;SDS011;10332;50.208;18.988;2022-09-29T01:52:16;14.63;;;8.90;;
20348;SDS011;10332;50.208;18.988;2022-09-29T01:54:59;14.85;;;8.70;;
20348;SDS011;10332;50.208;18.988;2022-09-29T01:57:47;10.65;;;7.93;;
20348;SDS011;10332;50.208;18.988;2022-09-29T02:00:20;12.13;;;8.70;;
20348;SDS011;10332;50.208;18.988;2022-09-29T02:02:50;11.32;;;7.97;;
20348;SDS011;10332;50.208;18.988;2022-09-29T02:08:09;11.13;;;7.38;;
20348;SDS011;10332;50.208;18.988;2022-09-29T02:10:48;12.98;;;8.25;;
20348;SDS011;10332;50.208;18.988;2022-09-29T02:13:26;9.77;;;6.78;;
20348;SDS011;10332;50.208;18.988;2022-09-29T02:16:01;10.88;;;7.47;;
20348;SDS011;10332;50.208;18.988;2022-09-29T02:18:38;9.90;;;7.45;;
20348;SDS011;10332;50.208;18.988;2022-09-29T02:21:14;14.25;;;8.07;;
20348;SDS011;10332;50.208;18.988;2022-09-29T02:23:42;12.75;;;8.13;;
20348;SDS011;10332;50.208;18.988;2022-09-29T02:26:09;11.88;;;7.32;;
20348;SDS011;10332;50.208;18.988;2022-09-29T02:28:38;10.27;;;7.50;;
20348;SDS011;10332;50.208;18.988;2022-09-29T02:31:08;12.35;;;7.97;;
20348;SDS011;10332;50.208;18.988;2022-09-29T02:33:35;9.32;;;6.43;;
20348;SDS011;10332;50.208;18.988;2022-09-29T02:36:17;10.27;;;6.57;;
20348;SDS011;10332;50.208;18.988;2022-09-29T02:51:17;9.38;;;6.03;;
20348;SDS011;10332;50.208;18.988;2022-09-29T03:00:00;7.75;;;5.40;;
20348;SDS011;10332;50.208;18.988;2022-09-29T03:02:38;7.10;;;5.30;;
20348;SDS011;10332;50.208;18.988;2022-09-29T03:05:09;6.45;;;4.53;;
20348;SDS011;10332;50.208;18.988;2022-09-29T03:07:39;6.07;;;4.57;;
20348;SDS011;10332;50.208;18.988;2022-09-29T03:10:07;8.07;;;5.22;;
20348;SDS011;10332;50.208;18.988;2022-09-29T03:12:36;7.75;;;4.95;;
20348;SDS011;10332;50.208;18.988;2022-09-29T03:15:05;8.77;;;5.38;;
20348;SDS011;10332;50.208;18.988;2022-09-29T03:17:33;8.45;;;5.28;;
20348;SDS011;10332;50.208;18.988;2022-09-29T03:20:01;5.90;;;4.63;;
20348;SDS011;10332;50.208;18.988;2022-09-29T03:22:29;7.18;;;4.85;;
20348;SDS011;10332;50.208;18.988;2022-09-29T03:24:57;6.43;;;4.97;;
20348;SDS011;10332;50.208;18.988;2022-09-29T03:27:24;6.35;;;4.82;;
20348;SDS011;10332;50.208;18.988;2022-09-29T03:29:51;6.53;;;5.07;;
20348;SDS011;10332;50.208;18.988;2022-09-29T03:32:18;7.85;;;5.65;;
20348;SDS011;10332;50.208;18.988;2022-09-29T03:34:46;7.60;;;5.70;;
20348;SDS011;10332;50.208;18.988;2022-09-29T03:37:13;8.93;;;5.38;;
20348;SDS011;10332;50.208;18.988;2022-09-29T03:39:41;6.47;;;5.05;;
20348;SDS011;10332;50.208;18.988;2022-09-29T03:42:08;6.25;;;4.85;;
20348;SDS011;10332;50.208;18.988;2022-09-29T03:44:35;6.03;;;4.70;;
20348;SDS011;10332;50.208;18.988;2022-09-29T03:47:03;8.70;;;6.00;;
20348;SDS011;10332;50.208;18.988;2022-09-29T03:49:30;7.90;;;5.40;;
20348;SDS011;10332;50.208;18.988;2022-09-29T03:51:57;7.80;;;5.13;;
20348;SDS011;10332;50.208;18.988;2022-09-29T03:54:25;9.52;;;6.10;;
20348;SDS011;10332;50.208;18.988;2022-09-29T03:56:53;7.43;;;5.80;;
20348;SDS011;10332;50.208;18.988;2022-09-29T03:59:20;9.57;;;6.55;;
20348;SDS011;10332;50.208;18.988;2022-09-29T04:01:48;6.40;;;5.50;;
20348;SDS011;10332;50.208;18.988;2022-09-29T04:04:15;6.70;;;5.43;;
20348;SDS011;10332;50.208;18.988;2022-09-29T04:06:43;6.47;;;4.95;;
20348;SDS011;10332;50.208;18.988;2022-09-29T04:09:10;5.45;;;4.25;;
20348;SDS011;10332;50.208;18.988;2022-09-29T04:11:37;6.55;;;4.20;;
20348;SDS011;10332;50.208;18.988;2022-09-29T04:14:05;6.15;;;4.32;;
20348;SDS011;10332;50.208;18.988;2022-09-29T04:16:32;4.40;;;3.70;;
20348;SDS011;10332;50.208;18.988;2022-09-29T04:19:00;5.93;;;4.57;;
20348;SDS011;10332;50.208;18.988;2022-09-29T04:21:28;9.13;;;8.23;;
20348;SDS011;10332;50.208;18.988;2022-09-29T04:23:55;9.88;;;8.00;;
20348;SDS011;10332;50.208;18.988;2022-09-29T04:26:22;7.32;;;6.03;;
20348;SDS011;10332;50.208;18.988;2022-09-29T04:28:49;7.93;;;6.35;;
20348;SDS011;10332;50.208;18.988;2022-09-29T04:31:16;9.15;;;6.70;;
20348;SDS011;10332;50.208;18.988;2022-09-29T04:33:44;7.72;;;5.43;;
20348;SDS011;10332;50.208;18.988;2022-09-29T04:36:11;9.05;;;6.07;;
20348;SDS011;10332;50.208;18.988;2022-09-29T04:38:38;9.40;;;6.05;;
20348;SDS011;10332;50.208;18.988;2022-09-29T04:41:06;7.45;;;4.63;;
20348;SDS011;10332;50.208;18.988;2022-09-29T04:43:33;7.32;;;5.03;;
20348;SDS011;10332;50.208;18.988;2022-09-29T04:46:02;6.53;;;4.80;;
20348;SDS011;10332;50.208;18.988;2022-09-29T04:48:32;5.78;;;3.90;;
20348;SDS011;10332;50.208;18.988;2022-09-29T04:51:02;5.22;;;3.95;;
20348;SDS011;10332;50.208;18.988;2022-09-29T04:53:31;10.13;;;5.90;;
20348;SDS011;10332;50.208;18.988;2022-09-29T04:55:58;6.72;;;4.85;;
20348;SDS011;10332;50.208;18.988;2022-09-29T04:58:30;6.18;;;4.43;;
20348;SDS011;10332;50.208;18.988;2022-09-29T05:01:05;5.47;;;4.30;;
20348;SDS011;10332;50.208;18.988;2022-09-29T05:03:39;5.18;;;4.28;;
20348;SDS011;10332;50.208;18.988;2022-09-29T05:06:08;4.13;;;3.60;;
20348;SDS011;10332;50.208;18.988;2022-09-29T05:08:35;9.65;;;6.82;;
20348;SDS011;10332;50.208;18.988;2022-09-29T05:11:06;8.43;;;6.65;;
20348;SDS011;10332;50.208;18.988;2022-09-29T05:13:35;7.65;;;6.20;;
20348;SDS011;10332;50.208;18.988;2022-09-29T05:16:03;8.13;;;6.40;;
20348;SDS011;10332;50.208;18.988;2022-09-29T05:18:31;7.78;;;5.95;;
20348;SDS011;10332;50.208;18.988;2022-09-29T05:21:05;10.05;;;6.65;;
20348;SDS011;10332;50.208;18.988;2022-09-29T05:23:54;14.90;;;8.98;;
20348;SDS011;10332;50.208;18.988;2022-09-29T05:26:22;21.55;;;12.15;;
20348;SDS011;10332;50.208;18.988;2022-09-29T05:28:50;18.38;;;10.82;;
20348;SDS011;10332;50.208;18.988;2022-09-29T05:31:17;15.80;;;9.65;;
20348;SDS011;10332;50.208;18.988;2022-09-29T05:33:45;13.77;;;8.57;;
20348;SDS011;10332;50.208;18.988;2022-09-29T05:36:12;12.50;;;8.32;;
20348;SDS011;10332;50.208;18.988;2022-09-29T05:38:40;11.02;;;7.35;;
20348;SDS011;10332;50.208;18.988;2022-09-29T05:41:08;8.82;;;6.28;;
20348;SDS011;10332;50.208;18.988;2022-09-29T05:43:38;9.65;;;7.00;;
20348;SDS011;10332;50.208;18.988;2022-09-29T05:46:07;10.07;;;7.30;;
20348;SDS011;10332;50.208;18.988;2022-09-29T05:48:36;11.10;;;8.68;;
20348;SDS011;10332;50.208;18.988;2022-09-29T05:51:08;11.52;;;8.13;;
20348;SDS011;10332;50.208;18.988;2022-09-29T05:53:38;10.02;;;7.53;;
20348;SDS011;10332;50.208;18.988;2022-09-29T05:56:14;12.65;;;9.98;;
20348;SDS011;10332;50.208;18.988;2022-09-29T05:58:45;10.63;;;8.43;;
20348;SDS011;10332;50.208;18.988;2022-09-29T06:01:16;10.20;;;8.00;;
20348;SDS011;10332;50.208;18.988;2022-09-29T06:03:47;8.15;;;7.18;;
20348;SDS011;10332;50.208;18.988;2022-09-29T06:06:20;9.27;;;7.47;;
20348;SDS011;10332;50.208;18.988;2022-09-29T06:08:51;9.23;;;8.23;;
20348;SDS011;10332;50.208;18.988;2022-09-29T06:11:21;10.60;;;8.13;;
20348;SDS011;10332;50.208;18.988;2022-09-29T06:13:53;7.85;;;6.28;;
20348;SDS011;10332;50.208;18.988;2022-09-29T06:16:24;14.73;;;11.32;;
20348;SDS011;10332;50.208;18.988;2022-09-29T06:18:55;10.57;;;8.35;;
20348;SDS011;10332;50.208;18.988;2022-09-29T06:21:23;8.02;;;6.53;;
20348;SDS011;10332;50.208;18.988;2022-09-29T06:23:53;10.20;;;6.85;;
20348;SDS011;10332;50.208;18.988;2022-09-29T06:26:22;5.72;;;4.65;;
20348;SDS011;10332;50.208;18.988;2022-09-29T06:28:52;7.35;;;5.55;;
20348;SDS011;10332;50.208;18.988;2022-09-29T06:31:21;9.38;;;6.95;;
20348;SDS011;10332;50.208;18.988;2022-09-29T06:33:52;9.57;;;7.90;;
20348;SDS011;10332;50.208;18.988;2022-09-29T06:36:40;11.00;;;9.27;;
20348;SDS011;10332;50.208;18.988;2022-09-29T06:39:29;8.70;;;7.18;;
20348;SDS011;10332;50.208;18.988;2022-09-29T06:41:56;8.65;;;7.07;;
20348;SDS011;10332;50.208;18.988;2022-09-29T06:44:24;7.78;;;6.15;;
20348;SDS011;10332;50.208;18.988;2022-09-29T06:46:54;8.20;;;6.43;;
20348;SDS011;10332;50.208;18.988;2022-09-29T06:49:23;8.88;;;6.82;;
20348;SDS011;10332;50.208;18.988;2022-09-29T06:51:51;13.13;;;7.63;;
20348;SDS011;10332;50.208;18.988;2022-09-29T06:54:19;9.27;;;7.25;;
20348;SDS011;10332;50.208;18.988;2022-09-29T06:56:51;9.93;;;7.03;;
20348;SDS011;10332;50.208;18.988;2022-09-29T06:59:21;9.38;;;7.57;;
20348;SDS011;10332;50.208;18.988;2022-09-29T07:01:48;7.30;;;6.35;;
20348;SDS011;10332;50.208;18.988;2022-09-29T07:04:17;8.57;;;5.90;;
20348;SDS011;10332;50.208;18.988;2022-09-29T07:06:47;9.55;;;6.93;;
20348;SDS011;10332;50.208;18.988;2022-09-29T07:09:15;6.97;;;5.75;;
20348;SDS011;10332;50.208;18.988;2022-09-29T07:11:44;7.85;;;6.38;;
20348;SDS011;10332;50.208;18.988;2022-09-29T07:14:20;23.90;;;18.33;;
20348;SDS011;10332;50.208;18.988;2022-09-29T07:16:50;18.58;;;12.73;;
20348;SDS011;10332;50.208;18.988;2022-09-29T07:19:18;11.38;;;7.65;;
20348;SDS011;10332;50.208;18.988;2022-09-29T07:21:46;8.50;;;6.22;;
20348;SDS011;10332;50.208;18.988;2022-09-29T07:24:14;6.90;;;5.82;;
20348;SDS011;10332;50.208;18.988;2022-09-29T07:26:42;7.97;;;6.43;;
20348;SDS011;10332;50.208;18.988;2022-09-29T07:29:10;7.32;;;6.38;;
20348;SDS011;10332;50.208;18.988;2022-09-29T07:31:47;5.90;;;5.05;;
20348;SDS011;10332;50.208;18.988;2022-09-29T07:34:19;8.05;;;5.85;;
20348;SDS011;10332;50.208;18.988;2022-09-29T07:36:47;7.35;;;5.60;;
20348;SDS011;10332;50.208;18.988;2022-09-29T07:39:15;6.30;;;5.22;;
20348;SDS011;10332;50.208;18.988;2022-09-29T07:41:45;9.85;;;7.47;;
20348;SDS011;10332;50.208;18.988;2022-09-29T07:44:12;8.18;;;5.70;;
20348;SDS011;10332;50.208;18.988;2022-09-29T07:46:39;11.48;;;7.22;;
20348;SDS011;10332;50.208;18.988;2022-09-29T07:49:08;7.55;;;5.97;;
20348;SDS011;10332;50.208;18.988;2022-09-29T07:51:35;8.05;;;6.88;;
20348;SDS011;10332;50.208;18.988;2022-09-29T07:54:03;6.22;;;5.10;;
20348;SDS011;10332;50.208;18.988;2022-09-29T07:56:31;8.75;;;7.03;;
20348;SDS011;10332;50.208;18.988;2022-09-29T07:58:59;6.65;;;5.97;;
20348;SDS011;10332;50.208;18.988;2022-09-29T08:01:28;6.03;;;4.50;;
20348;SDS011;10332;50.208;18.988;2022-09-29T08:03:55;6.13;;;4.93;;
20348;SDS011;10332;50.208;18.988;2022-09-29T08:06:24;4.38;;;3.90;;
20348;SDS011;10332;50.208;18.988;2022-09-29T08:08:52;7.78;;;6.30;;
20348;SDS011;10332;50.208;18.988;2022-09-29T08:11:30;7.32;;;5.07;;
20348;SDS011;10332;50.208;18.988;2022-09-29T08:14:02;7.68;;;5.95;;
20348;SDS011;10332;50.208;18.988;2022-09-29T08:16:30;6.20;;;5.55;;
20348;SDS011;10332;50.208;18.988;2022-09-29T08:18:58;7.55;;;6.68;;
20348;SDS011;10332;50.208;18.988;2022-09-29T08:21:27;6.72;;;6.05;;
20348;SDS011;10332;50.208;18.988;2022-09-29T08:23:56;6.13;;;5.45;;
20348;SDS011;10332;50.208;18.988;2022-09-29T08:26:24;9.20;;;5.90;;
20348;SDS011;10332;50.208;18.988;2022-09-29T08:29:07;6.40;;;5.45;;
20348;SDS011;10332;50.208;18.988;2022-09-29T08:31:42;7.13;;;6.32;;
20348;SDS011;10332;50.208;18.988;2022-09-29T08:34:10;6.55;;;5.90;;
20348;SDS011;10332;50.208;18.988;2022-09-29T08:36:39;7.85;;;6.20;;
20348;SDS011;10332;50.208;18.988;2022-09-29T08:39:08;6.78;;;6.05;;
20348;SDS011;10332;50.208;18.988;2022-09-29T08:44:25;6.40;;;5.55;;
20348;SDS011;10332;50.208;18.988;2022-09-29T08:47:19;7.72;;;5.88;;
20348;SDS011;10332;50.208;18.988;2022-09-29T08:52:57;6.65;;;5.30;;
20348;SDS011;10332;50.208;18.988;2022-09-29T08:55:51;5.53;;;4.97;;
20348;SDS011;10332;50.208;18.988;2022-09-29T08:58:27;7.68;;;5.35;;
20348;SDS011;10332;50.208;18.988;2022-09-29T09:13:29;3.05;;;2.65;;
20348;SDS011;10332;50.208;18.988;2022-09-29T09:18:48;5.32;;;4.82;;
20348;SDS011;10332;50.208;18.988;2022-09-29T09:21:42;3.63;;;3.03;;
20348;SDS011;10332;50.208;18.988;2022-09-29T09:24:27;3.50;;;1.67;;
20348;SDS011;10332;50.208;18.988;2022-09-29T09:27:02;2.10;;;1.67;;
20348;SDS011;10332;50.208;18.988;2022-09-29T09:29:35;2.08;;;1.65;;
20348;SDS011;10332;50.208;18.988;2022-09-29T09:32:19;2.20;;;1.85;;
20348;SDS011;10332;50.208;18.988;2022-09-29T09:34:58;1.80;;;1.70;;
20348;SDS011;10332;50.208;18.988;2022-09-29T09:37:49;3.40;;;1.98;;
20348;SDS011;10332;50.208;18.988;2022-09-29T09:40:24;2.00;;;1.80;;
20348;SDS011;10332;50.208;18.988;2022-09-29T09:43:02;1.63;;;1.52;;
20348;SDS011;10332;50.208;18.988;2022-09-29T09:46:23;1.88;;;1.73;;
20348;SDS011;10332;50.208;18.988;2022-09-29T09:48:51;1.83;;;1.73;;
20348;SDS011;10332;50.208;18.988;2022-09-29T09:51:34;1.80;;;1.65;;
20348;SDS011;10332;50.208;18.988;2022-09-29T09:54:14;2.33;;;2.13;;
20348;SDS011;10332;50.208;18.988;2022-09-29T09:57:21;2.58;;;2.13;;
20348;SDS011;10332;50.208;18.988;2022-09-29T10:02:35;2.60;;;1.90;;
20348;SDS011;10332;50.208;18.988;2022-09-29T10:05:10;1.40;;;1.30;;
20348;SDS011;10332;50.208;18.988;2022-09-29T10:07:40;2.00;;;1.75;;
20348;SDS011;10332;50.208;18.988;2022-09-29T10:10:14;1.85;;;1.70;;
20348;SDS011;10332;50.208;18.988;2022-09-29T10:12:57;1.85;;;1.75;;
20348;SDS011;10332;50.208;18.988;2022-09-29T10:15:35;2.03;;;1.90;;
20348;SDS011;10332;50.208;18.988;2022-09-29T10:18:19;2.15;;;1.95;;
20348;SDS011;10332;50.208;18.988;2022-09-29T10:21:21;1.73;;;1.60;;
20348;SDS011;10332;50.208;18.988;2022-09-29T10:23:55;1.67;;;1.55;;
20348;SDS011;10332;50.208;18.988;2022-09-29T10:26:32;2.67;;;1.67;;
20348;SDS011;10332;50.208;18.988;2022-09-29T10:32:00;3.75;;;3.35;;
20348;SDS011;10332;50.208;18.988;2022-09-29T10:34:36;2.47;;;2.28;;
20348;SDS011;10332;50.208;18.988;2022-09-29T10:37:17;3.35;;;3.05;;
20348;SDS011;10332;50.208;18.988;2022-09-29T10:39:50;2.30;;;2.10;;
20348;SDS011;10332;50.208;18.988;2022-09-29T10:42:34;2.28;;;2.00;;
20348;SDS011;10332;50.208;18.988;2022-09-29T10:45:13;1.80;;;1.70;;
20348;SDS011;10332;50.208;18.988;2022-09-29T10:50:34;2.72;;;2.28;;
20348;SDS011;10332;50.208;18.988;2022-09-29T10:56:16;1.58;;;1.48;;
20348;SDS011;10332;50.208;18.988;2022-09-29T10:58:54;2.35;;;1.50;;
20348;SDS011;10332;50.208;18.988;2022-09-29T11:01:32;2.28;;;1.60;;
20348;SDS011;10332;50.208;18.988;2022-09-29T11:04:17;2.38;;;1.70;;
20348;SDS011;10332;50.208;18.988;2022-09-29T11:07:03;1.40;;;1.30;;
20348;SDS011;10332;50.208;18.988;2022-09-29T11:09:39;1.25;;;1.15;;
20348;SDS011;10332;50.208;18.988;2022-09-29T11:15:21;1.88;;;1.70;;
20348;SDS011;10332;50.208;18.988;2022-09-29T11:17:54;2.20;;;2.00;;
20348;SDS011;10332;50.208;18.988;2022-09-29T11:20:24;1.92;;;1.50;;
20348;SDS011;10332;50.208;18.988;2022-09-29T11:23:15;1.40;;;1.30;;
20348;SDS011;10332;50.208;18.988;2022-09-29T11:31:26;1.60;;;1.50;;
20348;SDS011;10332;50.208;18.988;2022-09-29T11:34:10;1.00;;;1.00;;
20348;SDS011;10332;50.208;18.988;2022-09-29T11:40:17;3.20;;;2.88;;
20348;SDS011;10332;50.208;18.988;2022-09-29T11:46:20;1.52;;;1.20;;
20348;SDS011;10332;50.208;18.988;2022-09-29T12:01:17;1.90;;;1.70;;
20348;SDS011;10332;50.208;18.988;2022-09-29T12:10:57;7.78;;;7.00;;
20348;SDS011;10332;50.208;18.988;2022-09-29T12:16:48;6.05;;;5.40;;
20348;SDS011;10332;50.208;18.988;2022-09-29T12:19:23;2.85;;;2.22;;
20348;SDS011;10332;50.208;18.988;2022-09-29T12:21:58;2.30;;;1.70;;
20348;SDS011;10332;50.208;18.988;2022-09-29T12:24:36;1.90;;;1.73;;
20348;SDS011;10332;50.208;18.988;2022-09-29T12:27:32;2.83;;;2.00;;
20348;SDS011;10332;50.208;18.988;2022-09-29T12:30:22;3.25;;;2.35;;
20348;SDS011;10332;50.208;18.988;2022-09-29T12:33:06;2.03;;;1.67;;
20348;SDS011;10332;50.208;18.988;2022-09-29T12:42:25;3.10;;;2.80;;
20348;SDS011;10332;50.208;18.988;2022-09-29T12:45:11;3.90;;;3.55;;
20348;SDS011;10332;50.208;18.988;2022-09-29T12:50:56;2.20;;;2.00;;
20348;SDS011;10332;50.208;18.988;2022-09-29T12:59:38;2.78;;;2.13;;
20348;SDS011;10332;50.208;18.988;2022-09-29T13:16:44;1.67;;;1.58;;
20348;SDS011;10332;50.208;18.988;2022-09-29T13:19:52;3.08;;;1.40;;
20348;SDS011;10332;50.208;18.988;2022-09-29T13:28:31;1.63;;;1.17;;
20348;SDS011;10332;50.208;18.988;2022-09-29T13:31:24;1.60;;;1.50;;
20348;SDS011;10332;50.208;18.988;2022-09-29T13:33:59;1.70;;;1.60;;
20348;SDS011;10332;50.208;18.988;2022-09-29T13:36:30;1.58;;;1.40;;
20348;SDS011;10332;50.208;18.988;2022-09-29T13:39:05;2.05;;;1.80;;
20348;SDS011;10332;50.208;18.988;2022-09-29T13:41:47;1.95;;;1.60;;
20348;SDS011;10332;50.208;18.988;2022-09-29T13:44:20;1.65;;;1.50;;
20348;SDS011;10332;50.208;18.988;2022-09-29T13:46:51;1.40;;;1.30;;
20348;SDS011;10332;50.208;18.988;2022-09-29T13:49:22;1.65;;;1.50;;
20348;SDS011;10332;50.208;18.988;2022-09-29T13:54:53;1.33;;;1.20;;
20348;SDS011;10332;50.208;18.988;2022-09-29T13:57:21;1.95;;;1.70;;
20348;SDS011;10332;50.208;18.988;2022-09-29T14:02:37;2.90;;;2.50;;
20348;SDS011;10332;50.208;18.988;2022-09-29T14:10:24;2.05;;;1.85;;
20348;SDS011;10332;50.208;18.988;2022-09-29T14:13:03;2.83;;;2.08;;
20348;SDS011;10332;50.208;18.988;2022-09-29T14:18:45;3.35;;;1.98;;
20348;SDS011;10332;50.208;18.988;2022-09-29T14:27:25;4.53;;;2.45;;
20348;SDS011;10332;50.208;18.988;2022-09-29T14:30:42;4.60;;;2.63;;
20348;SDS011;10332;50.208;18.988;2022-09-29T14:33:21;3.85;;;2.60;;
20348;SDS011;10332;50.208;18.988;2022-09-29T14:36:02;8.48;;;5.15;;
20348;SDS011;10332;50.208;18.988;2022-09-29T14:38:57;12.10;;;8.20;;
20348;SDS011;10332;50.208;18.988;2022-09-29T14:41:44;8.48;;;6.15;;
20348;SDS011;10332;50.208;18.988;2022-09-29T14:44:26;9.50;;;5.57;;
20348;SDS011;10332;50.208;18.988;2022-09-29T14:50:28;6.20;;;3.63;;
20348;SDS011;10332;50.208;18.988;2022-09-29T14:53:47;4.65;;;3.00;;
20348;SDS011;10332;50.208;18.988;2022-09-29T14:59:48;9.10;;;4.30;;
20348;SDS011;10332;50.208;18.988;2022-09-29T15:02:39;5.45;;;3.50;;
20348;SDS011;10332;50.208;18.988;2022-09-29T15:05:29;21.42;;;4.10;;
20348;SDS011;10332;50.208;18.988;2022-09-29T15:08:00;5.50;;;3.92;;
20348;SDS011;10332;50.208;18.988;2022-09-29T15:10:46;6.82;;;4.53;;
20348;SDS011;10332;50.208;18.988;2022-09-29T15:13:24;6.97;;;4.45;;
20348;SDS011;10332;50.208;18.988;2022-09-29T15:16:02;11.10;;;5.70;;
20348;SDS011;10332;50.208;18.988;2022-09-29T15:25:52;15.07;;;6.50;;
20348;SDS011;10332;50.208;18.988;2022-09-29T15:28:18;13.77;;;5.85;;
20348;SDS011;10332;50.208;18.988;2022-09-29T15:30:51;13.73;;;6.80;;
20348;SDS011;10332;50.208;18.988;2022-09-29T15:38:35;10.65;;;7.53;;
20348;SDS011;10332;50.208;18.988;2022-09-29T15:43:38;7.10;;;4.25;;
20348;SDS011;10332;50.208;18.988;2022-09-29T15:46:38;9.52;;;6.30;;
20348;SDS011;10332;50.208;18.988;2022-09-29T15:54:34;64.38;;;21.15;;
20348;SDS011;10332;50.208;18.988;2022-09-29T15:57:26;55.78;;;20.10;;
20348;SDS011;10332;50.208;18.988;2022-09-29T16:02:50;77.72;;;27.55;;
20348;SDS011;10332;50.208;18.988;2022-09-29T16:05:40;76.68;;;29.92;;
20348;SDS011;10332;50.208;18.988;2022-09-29T16:08:18;78.97;;;32.05;;
20348;SDS011;10332;50.208;18.988;2022-09-29T16:10:54;59.30;;;26.05;;
20348;SDS011;10332;50.208;18.988;2022-09-29T16:13:27;49.50;;;20.25;;
20348;SDS011;10332;50.208;18.988;2022-09-29T16:15:59;34.00;;;15.75;;
20348;SDS011;10332;50.208;18.988;2022-09-29T16:21:12;10.10;;;5.25;;
20348;SDS011;10332;50.208;18.988;2022-09-29T16:23:49;5.85;;;2.97;;
20348;SDS011;10332;50.208;18.988;2022-09-29T16:26:34;6.03;;;2.75;;
20348;SDS011;10332;50.208;18.988;2022-09-29T16:31:37;3.10;;;2.20;;
20348;SDS011;10332;50.208;18.988;2022-09-29T16:36:54;2.92;;;2.17;;
20348;SDS011;10332;50.208;18.988;2022-09-29T16:39:41;3.08;;;2.28;;
20348;SDS011;10332;50.208;18.988;2022-09-29T16:42:30;4.85;;;2.63;;
20348;SDS011;10332;50.208;18.988;2022-09-29T16:44:57;4.82;;;3.13;;
20348;SDS011;10332;50.208;18.988;2022-09-29T16:47:29;4.22;;;2.53;;
20348;SDS011;10332;50.208;18.988;2022-09-29T16:50:03;3.55;;;2.45;;
20348;SDS011;10332;50.208;18.988;2022-09-29T16:58:04;4.47;;;2.88;;
20348;SDS011;10332;50.208;18.988;2022-09-29T17:00:40;4.57;;;3.03;;
20348;SDS011;10332;50.208;18.988;2022-09-29T17:03:12;5.00;;;3.38;;
20348;SDS011;10332;50.208;18.988;2022-09-29T17:05:40;5.45;;;3.72;;
20348;SDS011;10332;50.208;18.988;2022-09-29T17:08:18;4.90;;;3.55;;
20348;SDS011;10332;50.208;18.988;2022-09-29T17:10:53;6.82;;;3.42;;
20348;SDS011;10332;50.208;18.988;2022-09-29T17:13:22;5.15;;;2.97;;
20348;SDS011;10332;50.208;18.988;2022-09-29T17:15:59;5.53;;;3.25;;
20348;SDS011;10332;50.208;18.988;2022-09-29T17:18:28;6.75;;;3.47;;
20348;SDS011;10332;50.208;18.988;2022-09-29T17:20:55;6.00;;;4.03;;
20348;SDS011;10332;50.208;18.988;2022-09-29T17:23:23;7.95;;;4.70;;
20348;SDS011;10332;50.208;18.988;2022-09-29T17:25:50;5.03;;;4.28;;
20348;SDS011;10332;50.208;18.988;2022-09-29T17:28:18;9.45;;;4.38;;
20348;SDS011;10332;50.208;18.988;2022-09-29T17:30:52;8.13;;;4.85;;
20348;SDS011;10332;50.208;18.988;2022-09-29T17:33:21;9.60;;;4.78;;
20348;SDS011;10332;50.208;18.988;2022-09-29T17:35:49;7.05;;;4.88;;
20348;SDS011;10332;50.208;18.988;2022-09-29T17:38:21;8.18;;;5.55;;
20348;SDS011;10332;50.208;18.988;2022-09-29T17:40:56;9.00;;;5.78;;
20348;SDS011;10332;50.208;18.988;2022-09-29T17:43:28;8.43;;;5.45;;
20348;SDS011;10332;50.208;18.988;2022-09-29T17:45:57;7.93;;;5.60;;
20348;SDS011;10332;50.208;18.988;2022-09-29T17:48:27;8.52;;;5.82;;
20348;SDS011;10332;50.208;18.988;2022-09-29T17:50:56;9.43;;;5.88;;
20348;SDS011;10332;50.208;18.988;2022-09-29T17:53:25;11.40;;;6.55;;
20348;SDS011;10332;50.208;18.988;2022-09-29T17:55:53;10.65;;;6.75;;
20348;SDS011;10332;50.208;18.988;2022-09-29T17:58:23;11.75;;;7.43;;
20348;SDS011;10332;50.208;18.988;2022-09-29T18:00:51;12.23;;;7.13;;
20348;SDS011;10332;50.208;18.988;2022-09-29T18:03:23;12.50;;;7.00;;
20348;SDS011;10332;50.208;18.988;2022-09-29T18:05:52;10.82;;;6.35;;
20348;SDS011;10332;50.208;18.988;2022-09-29T18:08:22;12.25;;;7.53;;
20348;SDS011;10332;50.208;18.988;2022-09-29T18:10:54;11.25;;;7.30;;
20348;SDS011;10332;50.208;18.988;2022-09-29T18:13:25;12.48;;;7.38;;
20348;SDS011;10332;50.208;18.988;2022-09-29T18:15:57;12.27;;;7.00;;
20348;SDS011;10332;50.208;18.988;2022-09-29T18:18:26;11.07;;;7.70;;
20348;SDS011;10332;50.208;18.988;2022-09-29T18:20:54;13.23;;;8.70;;
20348;SDS011;10332;50.208;18.988;2022-09-29T18:23:22;14.93;;;9.30;;
20348;SDS011;10332;50.208;18.988;2022-09-29T18:25:50;12.95;;;9.43;;
20348;SDS011;10332;50.208;18.988;2022-09-29T18:28:18;10.93;;;7.68;;
20348;SDS011;10332;50.208;18.988;2022-09-29T18:30:47;15.63;;;7.82;;
20348;SDS011;10332;50.208;18.988;2022-09-29T18:33:19;10.00;;;6.97;;
20348;SDS011;10332;50.208;18.988;2022-09-29T18:35:51;10.90;;;7.30;;
20348;SDS011;10332;50.208;18.988;2022-09-29T18:38:21;11.07;;;7.55;;
20348;SDS011;10332;50.208;18.988;2022-09-29T18:40:52;12.77;;;7.97;;
20348;SDS011;10332;50.208;18.988;2022-09-29T18:43:21;12.45;;;8.88;;
20348;SDS011;10332;50.208;18.988;2022-09-29T18:45:51;16.23;;;10.10;;